createdAt,value
2018-04-30T00:00:00.016Z,41.10
2018-04-30T00:02:28.283Z,41.10
2018-04-30T00:04:56.550Z,41.50
2018-04-30T00:07:24.861Z,41.50
2018-04-30T00:09:53.367Z,41.80
2018-04-30T00:12:21.647Z,41.60
2018-04-30T00:14:49.894Z,41.70
2018-04-30T00:17:19.682Z,41.90
2018-04-30T00:19:47.972Z,41.80
2018-04-30T00:22:16.285Z,41.80
2018-04-30T00:24:44.599Z,42.10
2018-04-30T00:27:12.869Z,42.40
2018-04-30T00:29:41.166Z,42.50
2018-04-30T00:32:09.448Z,42.20
2018-04-30T00:34:37.741Z,42.40
2018-04-30T00:37:06.801Z,42.50
2018-04-30T00:39:35.088Z,42.40
2018-04-30T00:42:03.458Z,42.50
2018-04-30T00:44:31.740Z,42.90
2018-04-30T00:47:00.015Z,43.20
2018-04-30T00:49:28.294Z,43.30
2018-04-30T00:51:56.584Z,43.40
2018-04-30T00:54:42.798Z,43.20
2018-04-30T00:57:11.844Z,43.70
2018-04-30T00:59:40.135Z,43.60
2018-04-30T01:02:08.676Z,43.30
2018-04-30T01:04:36.967Z,43.40
2018-04-30T01:07:05.272Z,43.60
2018-04-30T01:09:33.580Z,43.60
2018-04-30T01:12:01.840Z,43.80
2018-04-30T01:14:30.111Z,43.90
2018-04-30T01:16:58.379Z,44.10
2018-04-30T01:19:26.663Z,44.20
2018-04-30T01:21:54.952Z,44.00
2018-04-30T01:24:24.750Z,44.20
2018-04-30T01:26:53.042Z,44.20
2018-04-30T01:29:22.110Z,44.50
2018-04-30T01:31:50.405Z,44.40
2018-04-30T01:34:20.161Z,44.60
2018-04-30T01:36:48.431Z,44.50
2018-04-30T01:39:16.730Z,44.50
2018-04-30T01:41:45.033Z,44.60
2018-04-30T01:44:13.331Z,44.80
2018-04-30T01:46:42.394Z,44.50
2018-04-30T01:49:10.670Z,44.50
2018-04-30T01:51:38.959Z,44.60
2018-04-30T01:54:07.246Z,45.20
2018-04-30T01:56:35.519Z,44.80
2018-04-30T01:59:05.317Z,44.80
2018-04-30T02:01:33.691Z,44.70
2018-04-30T02:04:02.023Z,44.60
2018-04-30T02:06:30.316Z,44.60
2018-04-30T02:08:59.319Z,44.30
2018-04-30T02:11:27.574Z,44.30
2018-04-30T02:13:55.857Z,44.30
2018-04-30T02:16:24.253Z,43.80
2018-04-30T02:18:52.538Z,43.60
2018-04-30T02:21:20.825Z,43.80
2018-04-30T02:23:49.105Z,43.40
2018-04-30T02:26:17.370Z,43.10
2018-04-30T02:28:45.650Z,43.40
2018-04-30T02:31:13.946Z,43.40
2018-04-30T02:33:42.300Z,43.50
2018-04-30T02:36:12.026Z,43.40
2018-04-30T02:38:40.303Z,43.40
2018-04-30T02:41:08.583Z,42.80
2018-04-30T02:43:37.906Z,42.50
2018-04-30T02:46:06.973Z,43.00
2018-04-30T02:48:35.249Z,42.40
2018-04-30T02:51:03.534Z,42.80
2018-04-30T02:53:31.800Z,42.70
2018-04-30T02:56:00.085Z,43.10
2018-04-30T02:58:28.356Z,43.20
2018-04-30T03:00:58.159Z,42.80
2018-04-30T03:03:26.454Z,42.80
2018-04-30T03:05:55.543Z,43.50
2018-04-30T03:08:23.814Z,43.00
2018-04-30T03:10:52.898Z,42.70
2018-04-30T03:13:21.176Z,42.70
2018-04-30T03:15:49.454Z,43.10
2018-04-30T03:18:17.737Z,42.80
2018-04-30T03:20:46.014Z,42.50
2018-04-30T03:23:14.281Z,42.60
2018-04-30T03:25:42.573Z,42.60
2018-04-30T03:28:11.642Z,42.70
2018-04-30T03:30:39.928Z,42.70
2018-04-30T03:33:08.171Z,43.10
2018-04-30T03:35:36.446Z,43.40
2018-04-30T03:38:04.755Z,43.60
2018-04-30T03:40:33.029Z,44.40
2018-04-30T03:43:01.400Z,44.80
2018-04-30T03:45:29.687Z,45.90
2018-04-30T03:47:57.983Z,47.00
2018-04-30T03:50:26.256Z,47.80
2018-04-30T03:52:55.325Z,52.20
2018-04-30T03:55:23.611Z,52.10
2018-04-30T03:57:51.886Z,53.90
2018-04-30T04:00:38.150Z,54.60
2018-04-30T04:03:24.182Z,55.70
2018-04-30T04:06:10.447Z,56.30
2018-04-30T04:08:38.753Z,57.00
2018-04-30T04:11:07.006Z,57.40
2018-04-30T04:13:35.245Z,57.90
2018-04-30T04:16:04.259Z,69.60
2018-04-30T04:18:32.536Z,69.50
2018-04-30T04:21:00.848Z,62.30
2018-04-30T04:23:29.115Z,61.40
2018-04-30T04:25:57.353Z,59.00
2018-04-30T04:28:25.625Z,55.70
2018-04-30T04:30:54.674Z,54.20
2018-04-30T04:33:22.961Z,54.20
2018-04-30T04:35:51.253Z,53.70
2018-04-30T04:38:20.273Z,52.10
2018-04-30T04:40:48.506Z,52.00
2018-04-30T04:43:18.277Z,50.90
2018-04-30T04:45:46.500Z,50.80
2018-04-30T04:48:15.517Z,49.60
2018-04-30T04:50:44.520Z,49.70
2018-04-30T04:53:12.761Z,49.70
2018-04-30T04:55:42.505Z,48.90
2018-04-30T04:58:10.746Z,48.90
2018-04-30T05:00:39.249Z,48.70
2018-04-30T05:03:08.263Z,49.00
2018-04-30T05:05:36.572Z,48.90
2018-04-30T05:08:04.874Z,49.40
2018-04-30T05:10:33.932Z,49.70
2018-04-30T05:13:02.242Z,49.70
2018-04-30T05:15:30.516Z,49.90
2018-04-30T05:18:00.378Z,49.90
2018-04-30T05:20:28.597Z,49.90
2018-04-30T05:22:56.869Z,50.30
2018-04-30T05:25:25.156Z,50.30
2018-04-30T05:27:54.227Z,49.70
2018-04-30T05:30:22.529Z,49.70
2018-04-30T05:32:50.812Z,50.00
2018-04-30T05:35:19.834Z,51.20
2018-04-30T05:37:48.837Z,51.40
2018-04-30T05:40:17.156Z,51.30
2018-04-30T05:42:45.405Z,51.40
2018-04-30T05:45:13.642Z,51.10
2018-04-30T05:47:42.662Z,51.90
2018-04-30T05:50:10.918Z,51.80
2018-04-30T05:52:39.920Z,52.70
2018-04-30T05:55:08.224Z,52.60
2018-04-30T05:57:36.394Z,52.90
2018-04-30T06:00:04.638Z,53.10
2018-04-30T06:02:33.634Z,53.50
2018-04-30T06:05:02.654Z,53.30
2018-04-30T06:07:30.941Z,53.20
2018-04-30T06:09:59.182Z,53.10
2018-04-30T06:12:27.461Z,53.10
2018-04-30T06:14:55.727Z,53.20
2018-04-30T06:17:24.045Z,53.50
2018-04-30T06:19:52.344Z,53.50
2018-04-30T06:22:21.397Z,54.60
2018-04-30T06:24:50.539Z,54.70
2018-04-30T06:27:18.818Z,55.60
2018-04-30T06:29:47.109Z,56.00
2018-04-30T06:32:16.155Z,56.70
2018-04-30T06:34:44.397Z,56.70
2018-04-30T06:37:13.446Z,58.00
2018-04-30T06:39:43.253Z,58.30
2018-04-30T06:42:11.820Z,58.30
2018-04-30T06:44:40.100Z,57.00
2018-04-30T06:47:08.386Z,57.50
2018-04-30T06:49:37.692Z,58.40
2018-04-30T06:52:05.965Z,58.40
2018-04-30T06:54:34.249Z,58.00
2018-04-30T06:57:04.058Z,59.90
2018-04-30T06:59:32.531Z,59.80
2018-04-30T07:02:00.911Z,59.70
2018-04-30T07:04:29.191Z,59.90
2018-04-30T07:06:57.472Z,60.00
2018-04-30T07:09:27.305Z,60.50
2018-04-30T07:11:56.355Z,60.60
2018-04-30T07:14:24.893Z,60.50
2018-04-30T07:16:53.951Z,60.20
2018-04-30T07:19:22.226Z,60.00
2018-04-30T07:21:50.518Z,60.60
2018-04-30T07:24:19.584Z,60.40
2018-04-30T07:26:47.894Z,60.30
2018-04-30T07:29:17.700Z,60.40
2018-04-30T07:31:46.782Z,60.40
2018-04-30T07:34:15.063Z,60.30
2018-04-30T07:36:44.884Z,59.90
2018-04-30T07:39:13.953Z,59.20
2018-04-30T07:41:42.691Z,59.20
2018-04-30T07:44:11.732Z,58.60
2018-04-30T07:46:39.969Z,58.60
2018-04-30T07:49:08.430Z,57.70
2018-04-30T07:51:37.446Z,58.20
2018-04-30T07:54:05.725Z,58.40
2018-04-30T07:56:33.999Z,58.00
2018-04-30T07:59:02.318Z,57.60
2018-04-30T08:01:30.605Z,57.70
2018-04-30T08:04:00.404Z,56.90
2018-04-30T08:06:28.693Z,57.00
2018-04-30T08:08:58.488Z,57.00
2018-04-30T08:11:26.787Z,57.00
2018-04-30T08:13:55.065Z,56.50
2018-04-30T08:16:24.119Z,55.50
2018-04-30T08:18:52.425Z,55.50
2018-04-30T08:21:20.701Z,55.10
2018-04-30T08:23:48.988Z,55.30
2018-04-30T08:26:17.254Z,56.40
2018-04-30T08:28:45.831Z,55.60
2018-04-30T08:31:14.117Z,52.70
2018-04-30T08:33:42.383Z,52.30
2018-04-30T08:36:12.213Z,51.80
2018-04-30T08:38:41.270Z,52.50
2018-04-30T08:41:09.636Z,52.60
2018-04-30T08:43:37.860Z,52.10
2018-04-30T08:46:06.939Z,48.80
2018-04-30T08:48:35.238Z,48.70
2018-04-30T08:51:05.016Z,49.80
2018-04-30T08:53:33.310Z,49.70
2018-04-30T08:56:01.572Z,50.20
2018-04-30T08:58:29.855Z,48.00
2018-04-30T09:00:58.147Z,48.10
2018-04-30T09:03:27.936Z,50.80
2018-04-30T09:05:56.211Z,50.80
2018-04-30T09:08:25.237Z,48.10
2018-04-30T09:10:54.277Z,47.90
2018-04-30T09:13:22.572Z,47.70
2018-04-30T09:15:50.856Z,47.90
2018-04-30T09:18:19.144Z,47.50
2018-04-30T09:20:47.460Z,47.70
2018-04-30T09:23:17.232Z,47.10
2018-04-30T09:25:45.522Z,47.00
2018-04-30T09:28:15.447Z,47.00
2018-04-30T09:30:43.698Z,47.00
2018-04-30T09:33:13.502Z,45.80
2018-04-30T09:35:41.784Z,45.70
2018-04-30T09:38:10.805Z,46.10
2018-04-30T09:40:39.877Z,45.70
2018-04-30T09:43:09.687Z,45.50
2018-04-30T09:45:38.755Z,48.90
2018-04-30T09:48:07.047Z,48.30
2018-04-30T09:50:35.334Z,44.40
2018-04-30T09:53:03.625Z,44.10
2018-04-30T09:55:31.909Z,43.30
2018-04-30T09:58:00.976Z,43.90
2018-04-30T10:00:29.234Z,44.00
2018-04-30T10:02:57.541Z,43.50
2018-04-30T10:05:27.329Z,45.10
2018-04-30T10:07:55.629Z,45.00
2018-04-30T10:10:24.718Z,45.30
2018-04-30T10:12:53.768Z,42.20
2018-04-30T10:15:22.076Z,42.20
2018-04-30T10:17:50.382Z,41.50
2018-04-30T10:20:20.157Z,42.30
2018-04-30T10:22:48.444Z,42.20
2018-04-30T10:25:16.737Z,42.90
2018-04-30T10:27:45.013Z,42.30
2018-04-30T10:30:14.800Z,43.60
2018-04-30T10:32:43.095Z,43.60
2018-04-30T10:35:11.383Z,45.30
2018-04-30T10:37:41.209Z,43.70
2018-04-30T10:40:10.264Z,43.40
2018-04-30T10:42:38.660Z,43.20
2018-04-30T10:45:06.920Z,42.60
2018-04-30T10:47:35.197Z,41.50
2018-04-30T10:50:03.482Z,41.20
2018-04-30T10:52:33.286Z,42.30
2018-04-30T10:55:01.576Z,42.90
2018-04-30T10:57:31.372Z,43.30
2018-04-30T10:59:59.675Z,43.30
2018-04-30T11:02:28.737Z,44.80
2018-04-30T11:04:57.028Z,44.70
2018-04-30T11:07:25.292Z,44.80
2018-04-30T11:09:53.588Z,45.30
2018-04-30T11:12:21.944Z,45.70
2018-04-30T11:14:50.209Z,45.60
2018-04-30T11:17:18.502Z,46.50
2018-04-30T11:19:46.774Z,47.00
2018-04-30T11:22:15.046Z,47.40
2018-04-30T11:24:43.348Z,48.00
2018-04-30T11:27:11.610Z,47.70
2018-04-30T11:29:40.173Z,47.30
2018-04-30T11:32:08.464Z,46.90
2018-04-30T11:34:36.758Z,46.00
2018-04-30T11:37:05.050Z,45.80
2018-04-30T11:39:33.326Z,47.60
2018-04-30T11:42:02.478Z,44.90
2018-04-30T11:44:30.757Z,44.90
2018-04-30T11:46:59.068Z,45.60
2018-04-30T11:49:28.040Z,44.80
2018-04-30T11:51:56.319Z,44.70
2018-04-30T11:54:24.618Z,46.10
2018-04-30T11:56:54.406Z,46.00
2018-04-30T11:59:22.715Z,46.00
2018-04-30T12:01:51.802Z,46.20
2018-04-30T12:04:20.089Z,46.10
2018-04-30T12:06:49.146Z,46.10
2018-04-30T12:09:17.432Z,46.00
2018-04-30T12:11:45.698Z,47.00
2018-04-30T12:14:13.974Z,45.60
2018-04-30T12:16:42.255Z,46.10
2018-04-30T12:19:10.540Z,45.10
2018-04-30T12:21:38.812Z,45.60
2018-04-30T12:24:07.874Z,43.90
2018-04-30T12:26:36.174Z,43.90
2018-04-30T12:29:05.234Z,41.50
2018-04-30T12:31:33.775Z,41.50
2018-04-30T12:34:02.847Z,44.10
2018-04-30T12:36:31.129Z,44.00
2018-04-30T12:38:59.404Z,43.20
2018-04-30T12:41:27.867Z,43.70
2018-04-30T12:43:56.146Z,43.90
2018-04-30T12:46:24.430Z,45.80
2018-04-30T12:48:53.534Z,46.30
2018-04-30T12:51:22.616Z,44.50
2018-04-30T12:53:50.899Z,44.50
2018-04-30T12:56:19.962Z,42.70
2018-04-30T12:58:48.222Z,42.70
2018-04-30T13:01:16.536Z,43.00
2018-04-30T13:03:44.828Z,44.20
2018-04-30T13:06:13.111Z,44.60
2018-04-30T13:08:41.368Z,42.60
2018-04-30T13:11:09.665Z,41.70
2018-04-30T13:13:38.734Z,42.10
2018-04-30T13:16:07.017Z,42.10
2018-04-30T13:18:35.292Z,40.40
2018-04-30T13:21:03.534Z,40.00
2018-04-30T13:23:31.838Z,40.20
2018-04-30T13:26:00.113Z,40.90
2018-04-30T13:28:28.489Z,42.60
2018-04-30T13:30:56.755Z,43.00
2018-04-30T13:33:25.069Z,43.20
2018-04-30T13:36:01.222Z,43.60
2018-04-30T13:38:29.499Z,44.10
2018-04-30T13:40:57.775Z,43.10
2018-04-30T13:43:27.571Z,44.40
2018-04-30T13:45:55.834Z,44.40
2018-04-30T13:48:24.136Z,43.90
2018-04-30T13:50:52.408Z,41.60
2018-04-30T13:53:20.684Z,42.80
2018-04-30T13:55:48.961Z,42.90
2018-04-30T13:58:18.047Z,42.00
2018-04-30T14:00:46.337Z,42.00
2018-04-30T14:03:15.407Z,40.40
2018-04-30T14:05:43.716Z,40.30
2018-04-30T14:08:12.004Z,40.00
2018-04-30T14:10:41.069Z,41.40
2018-04-30T14:13:09.373Z,41.30
2018-04-30T14:15:38.667Z,41.70
2018-04-30T14:18:08.468Z,41.50
2018-04-30T14:20:36.749Z,41.40
2018-04-30T14:23:05.021Z,40.60
2018-04-30T14:25:34.082Z,39.50
2018-04-30T14:28:02.358Z,39.60
2018-04-30T14:30:30.649Z,41.10
2018-04-30T14:32:58.936Z,40.70
2018-04-30T14:35:27.211Z,40.10
2018-04-30T14:37:55.495Z,41.10
2018-04-30T14:40:23.791Z,40.80
2018-04-30T14:42:52.891Z,40.50
2018-04-30T14:45:21.150Z,40.20
2018-04-30T14:47:50.210Z,41.10
2018-04-30T14:50:18.506Z,41.10
2018-04-30T14:52:46.799Z,41.40
2018-04-30T14:55:16.687Z,43.30
2018-04-30T14:57:44.989Z,42.70
2018-04-30T15:00:13.274Z,42.20
2018-04-30T15:02:42.327Z,43.00
2018-04-30T15:05:10.637Z,43.10
2018-04-30T15:07:39.689Z,43.70
2018-04-30T15:10:07.992Z,43.70
2018-04-30T15:12:36.276Z,44.00
2018-04-30T15:15:05.356Z,44.50
2018-04-30T15:17:33.647Z,44.60
2018-04-30T15:20:02.724Z,44.50
2018-04-30T15:22:31.016Z,44.60
2018-04-30T15:24:59.296Z,44.60
2018-04-30T15:27:27.612Z,44.80
2018-04-30T15:29:55.925Z,44.30
2018-04-30T15:32:24.233Z,44.20
2018-04-30T15:34:52.509Z,44.30
2018-04-30T15:37:22.324Z,45.30
2018-04-30T15:39:51.363Z,44.60
2018-04-30T15:42:19.667Z,44.60
2018-04-30T15:44:47.966Z,45.10
2018-04-30T15:47:16.253Z,45.30
2018-04-30T15:49:45.275Z,45.10
2018-04-30T15:52:13.551Z,45.00
2018-04-30T15:54:41.850Z,45.10
2018-04-30T15:57:10.113Z,45.40
2018-04-30T15:59:38.399Z,45.30
2018-04-30T16:02:06.674Z,43.90
2018-04-30T16:04:34.960Z,44.80
2018-04-30T16:07:03.264Z,45.20
2018-04-30T16:09:31.546Z,44.30
2018-04-30T16:11:59.821Z,43.70
2018-04-30T16:14:28.098Z,44.50
2018-04-30T16:16:56.348Z,45.30
2018-04-30T16:19:24.633Z,44.90
2018-04-30T16:21:52.912Z,44.80
2018-04-30T16:24:22.729Z,43.20
2018-04-30T16:26:51.002Z,43.20
2018-04-30T16:29:20.810Z,44.30
2018-04-30T16:31:49.088Z,44.10
2018-04-30T16:34:18.175Z,44.80
2018-04-30T16:36:47.262Z,45.10
2018-04-30T16:39:15.572Z,45.20
2018-04-30T16:41:44.625Z,44.90
2018-04-30T16:44:12.901Z,44.90
2018-04-30T16:46:41.197Z,44.50
2018-04-30T16:49:09.561Z,44.90
2018-04-30T16:51:37.863Z,45.60
2018-04-30T16:57:06.689Z,45.30
2018-04-30T16:59:34.963Z,45.20
2018-04-30T17:02:03.226Z,45.30
2018-04-30T17:04:31.503Z,45.50
2018-04-30T17:07:00.572Z,46.00
2018-04-30T17:09:28.841Z,45.90
2018-04-30T17:11:57.141Z,45.90
2018-04-30T17:14:25.406Z,46.20
2018-04-30T17:16:53.690Z,46.20
2018-04-30T17:19:22.199Z,46.40
2018-04-30T17:21:50.467Z,46.40
2018-04-30T17:24:18.774Z,46.70
2018-04-30T17:26:48.204Z,47.10
2018-04-30T17:29:16.490Z,46.70
2018-04-30T17:31:44.761Z,47.40
2018-04-30T17:34:13.053Z,47.40
2018-04-30T17:36:41.403Z,47.60
2018-04-30T17:39:10.445Z,49.00
2018-04-30T17:41:38.801Z,48.90
2018-04-30T17:44:07.002Z,48.50
2018-04-30T17:46:36.044Z,49.80
2018-04-30T17:49:04.328Z,49.80
2018-04-30T17:51:32.598Z,50.10
2018-04-30T17:54:00.961Z,49.90
2018-04-30T17:56:29.186Z,49.60
2018-04-30T17:58:57.535Z,50.00
2018-04-30T18:01:25.908Z,49.30
2018-04-30T18:03:54.565Z,48.80
2018-04-30T18:06:22.844Z,48.60
2018-04-30T18:08:51.119Z,48.90
2018-04-30T18:11:19.408Z,48.70
2018-04-30T18:13:47.704Z,49.20
2018-04-30T18:16:15.974Z,49.30
2018-04-30T18:18:45.015Z,49.70
2018-04-30T18:21:13.298Z,49.70
2018-04-30T18:23:41.703Z,49.60
2018-04-30T18:26:10.081Z,49.60
2018-04-30T18:28:38.374Z,49.70
2018-04-30T18:31:06.647Z,50.70
2018-04-30T18:33:34.937Z,51.00
2018-04-30T18:36:03.225Z,50.80
2018-04-30T18:38:32.023Z,50.40
2018-04-30T18:41:00.394Z,51.40
2018-04-30T18:43:29.440Z,52.40
2018-04-30T18:45:57.747Z,52.20
2018-04-30T18:48:26.094Z,53.60
2018-04-30T18:50:54.381Z,55.50
2018-04-30T18:53:22.685Z,57.70
2018-04-30T18:55:51.047Z,58.90
2018-04-30T18:58:19.344Z,60.50
2018-04-30T19:00:47.939Z,61.20
2018-04-30T19:03:16.239Z,60.20
2018-04-30T19:05:44.502Z,60.20
2018-04-30T19:08:12.808Z,61.10
2018-04-30T19:10:41.104Z,62.50
2018-04-30T19:13:09.423Z,63.40
2018-04-30T19:15:37.711Z,62.70
2018-04-30T19:18:06.058Z,63.30
2018-04-30T19:20:34.488Z,62.90
2018-04-30T19:23:02.759Z,62.90
2018-04-30T19:25:31.017Z,64.10
2018-04-30T19:28:05.739Z,63.70
2018-04-30T19:30:34.162Z,63.70
2018-04-30T19:33:02.547Z,63.30
2018-04-30T19:35:30.839Z,64.70
2018-04-30T19:37:59.461Z,65.30
2018-04-30T19:40:27.736Z,64.90
2018-04-30T19:42:56.942Z,65.10
2018-04-30T19:45:26.333Z,64.40
2018-04-30T19:47:54.913Z,65.80
2018-04-30T19:50:23.194Z,65.80
2018-04-30T19:52:51.494Z,66.00
2018-04-30T19:55:19.900Z,66.60
2018-04-30T19:57:48.944Z,68.90
2018-04-30T20:00:17.206Z,69.70
2018-04-30T20:02:45.494Z,67.40
2018-04-30T20:05:13.780Z,64.80
2018-04-30T20:07:42.475Z,65.60
2018-04-30T20:10:10.776Z,63.80
2018-04-30T20:12:39.248Z,63.60
2018-04-30T20:15:07.536Z,64.40
2018-04-30T20:17:36.539Z,65.20
2018-04-30T20:20:05.786Z,60.90
2018-04-30T20:22:34.030Z,60.80
2018-04-30T20:25:02.262Z,63.10
2018-04-30T20:27:30.926Z,60.80
2018-04-30T20:29:59.164Z,60.80
2018-04-30T20:32:27.394Z,60.00
2018-04-30T20:34:55.639Z,61.60
2018-04-30T20:37:23.875Z,61.60
2018-04-30T20:39:52.878Z,63.90
2018-04-30T20:42:21.126Z,63.90
2018-04-30T20:44:50.137Z,62.70
2018-04-30T20:47:19.233Z,60.70
2018-04-30T20:49:48.234Z,61.20
2018-04-30T20:52:16.481Z,61.10
2018-04-30T20:54:45.485Z,61.80
2018-04-30T20:57:14.504Z,64.60
2018-04-30T20:59:42.770Z,64.50
2018-04-30T21:02:11.149Z,66.60
2018-04-30T21:04:39.445Z,67.00
2018-04-30T21:07:07.690Z,67.10
2018-04-30T21:09:36.894Z,65.90
2018-04-30T21:12:05.897Z,64.80
2018-04-30T21:14:34.150Z,64.70
2018-04-30T21:17:03.151Z,60.00
2018-04-30T21:19:32.146Z,60.80
2018-04-30T21:22:00.398Z,60.80
2018-04-30T21:24:28.643Z,61.10
2018-04-30T21:26:57.807Z,63.40
2018-04-30T21:29:26.045Z,64.00
2018-04-30T21:31:54.289Z,64.50
2018-04-30T21:34:22.526Z,63.60
2018-04-30T21:36:50.793Z,64.50
2018-04-30T21:39:19.038Z,61.50
2018-04-30T21:41:47.295Z,61.50
2018-04-30T21:44:15.533Z,62.40
2018-04-30T21:46:43.796Z,63.30
2018-04-30T21:49:12.813Z,62.80
2018-04-30T21:51:41.047Z,62.70
2018-04-30T21:54:10.365Z,60.60
2018-04-30T21:56:39.370Z,62.30
2018-04-30T21:59:07.607Z,62.30
2018-04-30T22:01:35.850Z,62.40
2018-04-30T22:04:04.090Z,60.00
2018-04-30T22:06:32.343Z,59.20
2018-04-30T22:09:01.450Z,60.80
2018-04-30T22:11:30.466Z,59.50
2018-04-30T22:13:58.714Z,59.50
2018-04-30T22:16:27.714Z,60.70
2018-04-30T22:18:56.181Z,60.70
2018-04-30T22:21:24.406Z,60.30
2018-04-30T22:23:52.647Z,60.60
2018-04-30T22:26:20.985Z,61.30
2018-04-30T22:28:49.209Z,60.20
2018-04-30T22:31:17.461Z,60.20
2018-04-30T22:33:46.478Z,62.00
2018-04-30T22:36:14.717Z,61.90
2018-04-30T22:38:43.288Z,62.40
2018-04-30T22:41:11.530Z,62.30
2018-04-30T22:43:39.767Z,62.50
2018-04-30T22:46:08.781Z,60.30
2018-04-30T22:48:37.013Z,60.30
2018-04-30T22:51:05.258Z,61.70
2018-04-30T22:53:33.515Z,61.40
2018-04-30T22:56:01.741Z,61.20
2018-04-30T22:58:30.753Z,59.00
2018-04-30T23:00:59.769Z,56.60
2018-04-30T23:03:28.017Z,56.60
2018-04-30T23:05:57.022Z,55.00
2018-04-30T23:08:26.017Z,56.00
2018-04-30T23:10:55.013Z,55.30
2018-04-30T23:13:23.263Z,55.20
2018-04-30T23:15:51.500Z,55.90
2018-04-30T23:18:19.738Z,55.40
2018-04-30T23:20:48.014Z,54.60
2018-04-30T23:23:17.106Z,53.20
2018-04-30T23:25:46.122Z,52.60
2018-04-30T23:28:14.361Z,52.50
2018-04-30T23:30:42.590Z,52.70
2018-04-30T23:33:11.129Z,53.00
2018-04-30T23:35:40.130Z,53.80
2018-04-30T23:38:08.423Z,53.80
2018-04-30T23:40:36.661Z,54.20
2018-04-30T23:43:05.665Z,55.40
2018-04-30T23:45:34.666Z,55.70
2018-04-30T23:48:03.254Z,55.70
2018-04-30T23:50:31.481Z,56.10
2018-04-30T23:52:59.713Z,56.70
2018-04-30T23:55:27.955Z,56.80
2018-04-30T23:57:56.189Z,57.30
